Time;durP1;ratioP1;P1;durP2;ratioP2;P2;SDS_P1;SDS_P2;PMS_P1;PMS_P2;Temp;Humidity;BMP_temperature;BMP_pressure;BME280_temperature;BME280_humidity;BME280_pressure;Samples;Min_cycle;Max_cycle;Signal;HPM_P1;HPM_P2
2022/07/18 22:15:35;;;;;;;;;;;27.20;35.40;;;;;;6031762;23;2040746;-60
2022/07/18 22:18:01;;;;;;;;;;;27.20;34.30;;;;;;6096344;23;19917;-60
2022/07/18 22:20:26;;;;;;;;;;;27.30;34.50;;;;;;6096024;23;20285;-59
2022/07/18 22:22:52;;;;;;;;;;;27.40;33.70;;;;;;6095986;23;19910;-60
2022/07/18 22:25:17;;;;;;;;;;;27.40;33.90;;;;;;6095904;23;19921;-60
2022/07/18 22:27:43;;;;;;;;;;;27.50;33.50;;;;;;6095905;23;19910;-59
2022/07/18 22:30:11;;;;;;;;;;;27.40;33.90;;;;;;6095905;23;19917;-64
2022/07/18 22:32:37;;;;;;;;;;;27.40;33.70;;;;;;6096147;23;19988;-59
2022/07/18 22:35:03;;;;;;;;;;;27.30;33.70;;;;;;6095829;23;20290;-61
2022/07/18 22:37:28;;;;;;;;;;;27.30;34.60;;;;;;6096054;23;19913;-59
2022/07/18 22:39:54;;;;;;;;;;;27.10;33.80;;;;;;6095867;23;19960;-61
2022/07/18 22:42:20;;;;;;;;;;;27.10;34.60;;;;;;6095699;23;19911;-61
2022/07/18 22:44:45;;;;;;;;;;;27.00;35.10;;;;;;6095871;23;19917;-61
2022/07/18 22:47:12;;;;;;;;;;;27.10;34.70;;;;;;6095915;23;20233;-62
2022/07/18 22:49:38;;;;;;;;;;;27.10;35.10;;;;;;6095742;23;19913;-62
2022/07/18 22:52:04;;;;;;;;;;;27.20;34.60;;;;;;6096085;23;20322;-64
2022/07/18 22:54:29;;;;;;;;;;;27.20;34.30;;;;;;6097694;23;19906;-59
2022/07/18 22:56:55;;;;;;;;;;;27.10;34.20;;;;;;6097467;23;19913;-64
2022/07/18 22:59:20;;;;;;;;;;;27.20;34.60;;;;;;6097686;23;19905;-64
2022/07/18 23:01:46;;;;;;;;;;;27.20;34.30;;;;;;6102231;23;19921;-60
2022/07/18 23:04:12;;;;;;;;;;;27.20;34.20;;;;;;6105487;23;19917;-59
2022/07/18 23:06:37;;;;;;;;;;;27.10;34.00;;;;;;6097657;23;19905;-60
2022/07/18 23:09:03;;;;;;;;;;;27.10;34.20;;;;;;6095784;23;19913;-61
2022/07/18 23:11:28;;;;;;;;;;;27.20;34.00;;;;;;6097565;23;19909;-65
2022/07/18 23:13:54;;;;;;;;;;;27.20;34.10;;;;;;6097768;23;19909;-64
2022/07/18 23:16:20;;;;;;;;;;;27.20;34.20;;;;;;6097208;23;19929;-59
2022/07/18 23:18:45;;;;;;;;;;;27.20;34.40;;;;;;6097367;23;19913;-61
2022/07/18 23:21:11;;;;;;;;;;;27.20;34.20;;;;;;6095966;23;19906;-61
2022/07/18 23:23:36;;;;;;;;;;;27.10;34.30;;;;;;6097294;23;19906;-60
2022/07/18 23:26:02;;;;;;;;;;;27.00;34.30;;;;;;6095776;23;19943;-67
2022/07/18 23:28:28;;;;;;;;;;;27.10;34.50;;;;;;6097175;23;19906;-66
2022/07/18 23:30:53;;;;;;;;;;;27.00;34.50;;;;;;6097269;23;19913;-65
2022/07/18 23:33:19;;;;;;;;;;;27.00;34.40;;;;;;6097202;23;19917;-66
2022/07/18 23:35:45;;;;;;;;;;;26.90;34.20;;;;;;6097323;23;19913;-63
2022/07/18 23:38:10;;;;;;;;;;;26.90;34.30;;;;;;6097086;23;19980;-65
2022/07/18 23:40:36;;;;;;;;;;;27.00;34.30;;;;;;6097448;23;20322;-60
2022/07/18 23:43:01;;;;;;;;;;;26.90;34.30;;;;;;6097141;23;19927;-62
2022/07/18 23:45:27;;;;;;;;;;;26.90;34.20;;;;;;6097153;23;19905;-59
2022/07/18 23:47:52;;;;;;;;;;;26.90;34.20;;;;;;6097239;23;19909;-63
2022/07/18 23:50:18;;;;;;;;;;;26.60;34.60;;;;;;6097583;23;19920;-59
2022/07/18 23:52:45;;;;;;;;;;;26.60;34.60;;;;;;6097203;23;19909;-60
2022/07/18 23:55:11;;;;;;;;;;;26.50;34.60;;;;;;6096960;23;19917;-63
2022/07/18 23:57:37;;;;;;;;;;;26.60;35.10;;;;;;6097124;23;19913;-64
